createdAt,value
2019-03-18T00:00:29.497Z,62.30
2019-03-18T00:02:56.362Z,63.40
2019-03-18T00:05:22.997Z,63.30
2019-03-18T00:07:49.502Z,63.80
2019-03-18T00:10:16.159Z,64.60
2019-03-18T00:12:42.674Z,64.50
2019-03-18T00:15:09.350Z,64.60
2019-03-18T00:17:36.270Z,65.00
2019-03-18T00:20:04.779Z,64.70
2019-03-18T00:22:31.402Z,64.60
2019-03-18T00:24:58.087Z,64.50
2019-03-18T00:27:24.635Z,64.20
2019-03-18T00:29:51.263Z,64.10
2019-03-18T00:32:17.918Z,64.10
2019-03-18T00:34:44.420Z,64.60
2019-03-18T00:37:11.273Z,64.70
2019-03-18T00:39:38.015Z,65.00
2019-03-18T00:42:04.629Z,64.90
2019-03-18T00:44:31.258Z,64.80
2019-03-18T00:46:58.146Z,64.80
2019-03-18T00:49:24.793Z,65.60
2019-03-18T00:51:51.400Z,66.00
2019-03-18T00:54:18.271Z,66.50
2019-03-18T00:56:44.918Z,67.10
2019-03-18T00:59:11.543Z,67.60
2019-03-18T01:01:38.194Z,68.20
2019-03-18T01:04:04.805Z,68.10
2019-03-18T01:06:31.441Z,67.50
2019-03-18T01:08:57.974Z,67.60
2019-03-18T01:11:24.532Z,68.10
2019-03-18T01:13:51.165Z,68.70
2019-03-18T01:16:17.806Z,68.40
2019-03-18T01:18:44.417Z,68.20
2019-03-18T01:21:10.966Z,68.00
2019-03-18T01:23:37.828Z,68.00
2019-03-18T01:26:04.434Z,68.00
2019-03-18T01:28:30.995Z,67.40
2019-03-18T01:30:57.877Z,67.60
2019-03-18T01:33:24.389Z,67.70
2019-03-18T01:35:51.086Z,67.70
2019-03-18T01:38:17.725Z,67.60
2019-03-18T01:40:44.316Z,67.80
2019-03-18T01:43:10.859Z,67.80
2019-03-18T01:45:40.978Z,68.20
2019-03-18T01:48:05.893Z,67.90
2019-03-18T01:50:34.317Z,67.90
2019-03-18T01:53:00.871Z,68.30
2019-03-18T01:55:27.481Z,68.70
2019-03-18T01:57:54.207Z,68.70
2019-03-18T02:00:20.828Z,69.00
2019-03-18T02:02:47.434Z,68.90
2019-03-18T02:05:14.060Z,69.30
2019-03-18T02:07:40.929Z,69.60
2019-03-18T02:10:14.973Z,69.20
2019-03-18T02:12:41.716Z,68.90
2019-03-18T02:15:10.158Z,68.80
2019-03-18T02:17:36.784Z,68.60
2019-03-18T02:20:11.232Z,68.60
2019-03-18T02:22:37.777Z,68.80
2019-03-18T02:25:06.204Z,69.10
2019-03-18T02:27:33.039Z,69.20
2019-03-18T02:30:00.286Z,69.00
2019-03-18T02:32:27.139Z,69.00
2019-03-18T02:34:53.784Z,68.90
2019-03-18T02:37:20.322Z,68.90
2019-03-18T02:39:47.148Z,69.30
2019-03-18T02:42:14.147Z,69.50
2019-03-18T02:44:40.801Z,69.70
2019-03-18T02:47:07.711Z,69.20
2019-03-18T02:49:34.230Z,69.40
2019-03-18T02:52:00.780Z,68.80
2019-03-18T02:54:27.312Z,69.20
2019-03-18T02:56:53.824Z,69.20
2019-03-18T02:59:20.781Z,69.20
2019-03-18T03:01:47.286Z,69.30
2019-03-18T03:04:14.044Z,69.40
2019-03-18T03:06:40.589Z,69.50
2019-03-18T03:09:07.195Z,69.40
2019-03-18T03:11:34.468Z,69.30
2019-03-18T03:14:01.429Z,69.40
2019-03-18T03:16:28.124Z,69.30
2019-03-18T03:18:54.631Z,69.50
2019-03-18T03:21:21.632Z,69.90
2019-03-18T03:23:48.247Z,70.40
2019-03-18T03:26:14.861Z,70.90
2019-03-18T03:28:41.567Z,70.90
2019-03-18T03:31:08.194Z,70.70
2019-03-18T03:33:34.822Z,71.50
2019-03-18T03:36:01.354Z,71.90
2019-03-18T03:38:27.981Z,72.00
2019-03-18T03:40:54.601Z,71.30
2019-03-18T03:43:21.695Z,71.00
2019-03-18T03:45:48.208Z,70.70
2019-03-18T03:48:14.725Z,71.20
2019-03-18T03:50:41.385Z,70.80
2019-03-18T03:53:07.911Z,70.60
2019-03-18T03:55:34.592Z,70.30
2019-03-18T03:58:01.133Z,70.40
2019-03-18T04:00:27.781Z,71.00
2019-03-18T04:02:54.417Z,70.80
2019-03-18T04:05:21.067Z,70.80
2019-03-18T04:07:47.716Z,70.30
2019-03-18T04:10:14.128Z,70.30
2019-03-18T04:12:40.655Z,70.30
2019-03-18T04:15:09.385Z,70.60
2019-03-18T04:17:36.004Z,70.50
2019-03-18T04:20:04.962Z,69.90
2019-03-18T04:22:31.710Z,70.30
2019-03-18T04:24:58.238Z,69.90
2019-03-18T04:27:25.239Z,69.60
2019-03-18T04:29:52.024Z,69.30
2019-03-18T04:32:38.412Z,69.60
2019-03-18T04:35:05.042Z,70.20
2019-03-18T04:37:31.689Z,70.20
2019-03-18T04:39:58.325Z,69.90
2019-03-18T04:42:24.934Z,69.40
2019-03-18T04:44:51.831Z,69.50
2019-03-18T04:47:18.347Z,69.60
2019-03-18T04:49:44.970Z,69.30
2019-03-18T04:52:11.590Z,68.70
2019-03-18T04:54:38.244Z,68.30
2019-03-18T04:57:04.760Z,68.10
2019-03-18T04:59:31.266Z,68.00
2019-03-18T05:01:57.960Z,67.80
2019-03-18T05:04:24.480Z,67.70
2019-03-18T05:06:50.981Z,69.80
2019-03-18T05:09:17.660Z,70.70
2019-03-18T05:11:44.289Z,71.50
2019-03-18T05:14:10.927Z,72.00
2019-03-18T05:16:37.870Z,72.10
2019-03-18T05:19:04.390Z,71.40
2019-03-18T05:21:31.050Z,72.60
2019-03-18T05:23:58.043Z,72.30
2019-03-18T05:26:24.649Z,72.60
2019-03-18T05:28:51.267Z,72.30
2019-03-18T05:31:17.947Z,72.20
2019-03-18T05:33:44.349Z,72.50
2019-03-18T05:36:10.980Z,72.60
2019-03-18T05:38:37.666Z,72.10
2019-03-18T05:41:04.281Z,71.80
2019-03-18T05:43:30.911Z,72.10
2019-03-18T05:45:57.779Z,72.70
2019-03-18T05:48:24.311Z,72.60
2019-03-18T05:50:50.702Z,72.60
2019-03-18T05:53:17.706Z,72.40
2019-03-18T05:55:44.422Z,73.00
2019-03-18T05:58:11.043Z,73.30
2019-03-18T06:00:37.881Z,73.50
2019-03-18T06:03:04.397Z,74.10
2019-03-18T06:05:30.906Z,74.10
2019-03-18T06:07:57.410Z,74.60
2019-03-18T06:10:24.338Z,74.30
2019-03-18T06:12:50.780Z,74.70
2019-03-18T06:15:17.640Z,74.60
2019-03-18T06:18:04.003Z,75.10
2019-03-18T06:20:30.614Z,75.30
2019-03-18T06:22:57.542Z,75.10
2019-03-18T06:25:24.055Z,75.20
2019-03-18T06:27:50.578Z,74.90
2019-03-18T06:30:17.495Z,74.40
2019-03-18T06:32:44.118Z,74.00
2019-03-18T06:35:10.779Z,74.10
2019-03-18T06:37:37.402Z,74.50
2019-03-18T06:40:07.415Z,74.60
2019-03-18T06:42:33.957Z,74.30
2019-03-18T06:45:00.603Z,75.20
2019-03-18T06:47:27.233Z,75.40
2019-03-18T06:49:53.900Z,75.00
2019-03-18T06:52:20.518Z,75.20
2019-03-18T06:54:47.206Z,75.60
2019-03-18T06:57:14.058Z,75.30
2019-03-18T06:59:40.674Z,75.00
2019-03-18T07:02:07.194Z,74.80
2019-03-18T07:04:33.809Z,74.90
2019-03-18T07:07:00.421Z,74.80
2019-03-18T07:09:27.073Z,74.90
2019-03-18T07:11:53.713Z,75.00
2019-03-18T07:14:20.240Z,75.40
2019-03-18T07:16:46.765Z,75.00
2019-03-18T07:19:13.423Z,75.30
2019-03-18T07:21:39.837Z,75.90
2019-03-18T07:24:06.446Z,76.20
2019-03-18T07:26:33.289Z,76.60
2019-03-18T07:28:59.908Z,76.80
2019-03-18T07:31:26.551Z,76.90
2019-03-18T07:33:53.217Z,76.80
2019-03-18T07:36:19.845Z,76.60
2019-03-18T07:38:46.464Z,76.20
2019-03-18T07:41:13.407Z,75.70
2019-03-18T07:43:40.029Z,76.00
2019-03-18T07:46:26.419Z,75.50
2019-03-18T07:48:53.040Z,75.10
2019-03-18T07:51:19.662Z,74.70
2019-03-18T07:53:46.094Z,75.10
2019-03-18T07:56:12.725Z,73.50
2019-03-18T07:58:39.341Z,73.00
2019-03-18T08:01:06.005Z,72.50
2019-03-18T08:03:32.613Z,72.60
2019-03-18T08:05:59.330Z,72.30
2019-03-18T08:08:26.048Z,71.50
2019-03-18T08:10:52.970Z,70.90
2019-03-18T08:13:19.741Z,70.60
2019-03-18T08:15:46.392Z,70.30
2019-03-18T08:18:12.951Z,69.90
2019-03-18T08:20:39.466Z,66.50
2019-03-18T08:23:06.209Z,67.60
2019-03-18T08:25:33.021Z,67.30
2019-03-18T08:27:59.530Z,66.60
2019-03-18T08:30:26.049Z,64.60
2019-03-18T08:32:52.565Z,63.40
2019-03-18T08:35:19.198Z,63.50
2019-03-18T08:37:45.628Z,64.30
2019-03-18T08:40:12.249Z,62.30
2019-03-18T08:42:38.961Z,62.10
2019-03-18T08:45:08.233Z,63.80
2019-03-18T08:47:34.850Z,63.70
2019-03-18T08:50:01.468Z,63.40
2019-03-18T08:52:28.585Z,62.00
2019-03-18T08:54:55.404Z,61.30
2019-03-18T08:57:21.958Z,61.10
2019-03-18T08:59:48.618Z,60.80
2019-03-18T09:02:15.126Z,61.90
2019-03-18T09:04:41.638Z,60.10
2019-03-18T09:07:08.286Z,58.70
2019-03-18T09:09:34.902Z,58.00
2019-03-18T09:12:01.517Z,58.80
2019-03-18T09:14:28.310Z,57.10
2019-03-18T09:16:54.923Z,52.10
2019-03-18T09:19:21.214Z,50.40
2019-03-18T09:21:47.623Z,51.20
2019-03-18T09:24:14.240Z,52.40
2019-03-18T09:26:40.541Z,50.80
2019-03-18T09:29:06.946Z,52.50
2019-03-18T09:31:33.525Z,52.50
2019-03-18T09:33:59.938Z,51.40
2019-03-18T09:36:26.605Z,50.30
2019-03-18T09:38:53.011Z,50.70
2019-03-18T09:41:19.541Z,50.00
2019-03-18T09:43:46.092Z,48.20
2019-03-18T09:46:12.372Z,49.30
2019-03-18T09:48:38.674Z,49.60
2019-03-18T09:51:04.986Z,50.20
2019-03-18T09:53:31.384Z,50.80
2019-03-18T09:55:57.673Z,50.00
2019-03-18T09:58:24.512Z,50.20
2019-03-18T10:00:50.950Z,49.30
2019-03-18T10:03:17.337Z,49.50
2019-03-18T10:05:43.996Z,49.70
2019-03-18T10:08:10.788Z,49.00
2019-03-18T10:10:37.329Z,48.00
2019-03-18T10:13:03.886Z,49.70
2019-03-18T10:15:30.392Z,50.00
2019-03-18T10:17:57.020Z,49.90
2019-03-18T10:20:23.679Z,50.40
2019-03-18T10:22:50.086Z,50.80
2019-03-18T10:25:16.507Z,50.40
2019-03-18T10:27:43.258Z,48.90
2019-03-18T10:30:12.360Z,50.60
2019-03-18T10:32:38.646Z,50.60
2019-03-18T10:35:05.277Z,50.20
2019-03-18T10:37:31.674Z,50.60
2019-03-18T10:39:58.074Z,48.30
2019-03-18T10:42:24.615Z,48.40
2019-03-18T10:44:50.942Z,48.60
2019-03-18T10:47:17.236Z,47.40
2019-03-18T10:49:46.515Z,48.70
2019-03-18T10:52:11.756Z,48.80
2019-03-18T10:54:38.035Z,49.10
2019-03-18T10:57:04.620Z,48.70
2019-03-18T10:59:31.094Z,48.70
2019-03-18T11:01:57.526Z,49.00
2019-03-18T11:04:24.420Z,49.30
2019-03-18T11:06:50.926Z,48.60
2019-03-18T11:09:17.219Z,48.70
2019-03-18T11:11:43.940Z,49.40
2019-03-18T11:14:10.169Z,49.30
2019-03-18T11:16:36.464Z,49.10
2019-03-18T11:19:02.768Z,49.10
2019-03-18T11:21:29.080Z,49.00
2019-03-18T11:23:55.577Z,48.30
2019-03-18T11:26:22.235Z,47.60
2019-03-18T11:28:48.632Z,47.10
2019-03-18T11:31:15.190Z,48.10
2019-03-18T11:33:41.656Z,47.00
2019-03-18T11:36:08.085Z,47.80
2019-03-18T11:38:34.614Z,47.60
2019-03-18T11:41:00.982Z,47.30
2019-03-18T11:43:27.489Z,46.70
2019-03-18T11:45:53.998Z,46.80
2019-03-18T11:48:20.605Z,46.00
2019-03-18T11:50:46.999Z,45.80
2019-03-18T11:53:14.544Z,44.50
2019-03-18T11:55:41.442Z,44.80
2019-03-18T11:58:07.722Z,45.10
2019-03-18T12:00:34.779Z,43.90
2019-03-18T12:03:01.197Z,42.40
2019-03-18T12:05:27.978Z,44.30
2019-03-18T12:07:54.289Z,43.60
2019-03-18T12:10:20.952Z,43.10
2019-03-18T12:12:47.241Z,41.60
2019-03-18T12:15:15.261Z,42.30
2019-03-18T12:17:41.948Z,42.90
2019-03-18T12:20:23.215Z,41.60
2019-03-18T12:22:39.478Z,41.30
2019-03-18T12:25:07.439Z,40.00
2019-03-18T12:27:35.391Z,40.10
2019-03-18T12:30:08.274Z,40.20
2019-03-18T12:32:34.700Z,39.40
2019-03-18T12:35:01.241Z,38.60
2019-03-18T12:37:27.516Z,39.40
2019-03-18T12:39:53.812Z,37.40
2019-03-18T12:42:20.337Z,38.30
2019-03-18T12:44:46.778Z,37.40
2019-03-18T12:47:13.181Z,36.40
2019-03-18T12:49:39.580Z,36.90
2019-03-18T12:52:06.471Z,36.50
2019-03-18T12:54:32.756Z,34.40
2019-03-18T12:56:59.055Z,35.50
2019-03-18T12:59:25.477Z,34.90
2019-03-18T13:01:51.899Z,35.30
2019-03-18T13:04:18.284Z,34.90
2019-03-18T13:06:44.661Z,34.60
2019-03-18T13:09:11.046Z,33.90
2019-03-18T13:11:37.569Z,33.20
2019-03-18T13:14:04.572Z,32.30
2019-03-18T13:16:30.944Z,32.10
2019-03-18T13:18:57.565Z,31.00
2019-03-18T13:21:24.215Z,29.20
2019-03-18T13:23:50.726Z,29.70
2019-03-18T13:26:17.126Z,28.10
2019-03-18T13:28:43.632Z,28.30
2019-03-18T13:31:10.003Z,27.90
2019-03-18T13:33:36.458Z,25.70
2019-03-18T13:36:03.248Z,26.80
2019-03-18T13:38:29.972Z,24.30
2019-03-18T13:40:56.379Z,24.40
2019-03-18T13:43:23.139Z,24.00
2019-03-18T13:45:55.178Z,22.30
2019-03-18T13:48:18.239Z,21.90
2019-03-18T13:50:44.892Z,22.30
2019-03-18T13:53:11.291Z,21.80
2019-03-18T13:55:37.826Z,20.80
2019-03-18T13:58:04.336Z,20.10
2019-03-18T14:00:31.391Z,19.50
2019-03-18T14:02:57.951Z,18.60
2019-03-18T14:05:24.634Z,18.90
2019-03-18T14:08:00.368Z,19.70
2019-03-18T14:10:20.996Z,17.50
2019-03-18T14:12:47.661Z,16.80
2019-03-18T14:15:16.579Z,18.30
2019-03-18T14:17:42.977Z,17.10
2019-03-18T14:20:15.057Z,17.50
2019-03-18T14:22:41.471Z,16.50
2019-03-18T14:25:08.783Z,16.20
2019-03-18T14:27:35.085Z,16.40
2019-03-18T14:30:01.869Z,17.10
2019-03-18T14:32:28.625Z,16.20
2019-03-18T14:34:55.070Z,16.50
2019-03-18T14:37:21.350Z,15.50
2019-03-18T14:39:47.742Z,15.40
2019-03-18T14:42:14.462Z,15.70
2019-03-18T14:44:41.071Z,15.20
2019-03-18T14:47:07.360Z,15.50
2019-03-18T14:49:33.966Z,15.30
2019-03-18T14:52:00.264Z,15.30
2019-03-18T14:54:26.678Z,14.60
2019-03-18T14:56:53.009Z,15.30
2019-03-18T14:59:19.317Z,15.10
2019-03-18T15:01:45.843Z,14.90
2019-03-18T15:04:12.144Z,15.10
2019-03-18T15:06:38.646Z,15.40
2019-03-18T15:09:06.856Z,14.90
2019-03-18T15:11:33.152Z,14.00
2019-03-18T15:13:59.583Z,13.50
2019-03-18T15:16:26.651Z,14.80
2019-03-18T15:18:52.987Z,14.30
2019-03-18T15:21:19.280Z,13.70
2019-03-18T15:23:45.695Z,13.30
2019-03-18T15:26:12.070Z,13.40
2019-03-18T15:28:38.540Z,13.90
2019-03-18T15:31:04.845Z,13.20
2019-03-18T15:33:31.639Z,14.10
2019-03-18T15:35:57.938Z,13.60
2019-03-18T15:38:24.443Z,13.70
2019-03-18T15:40:51.165Z,14.40
2019-03-18T15:43:17.469Z,13.40
2019-03-18T15:45:43.765Z,13.90
2019-03-18T15:48:10.155Z,12.90
2019-03-18T15:50:36.580Z,12.70
2019-03-18T15:53:03.269Z,13.00
2019-03-18T15:55:29.722Z,12.90
2019-03-18T15:57:56.142Z,14.50
2019-03-18T16:00:24.351Z,13.40
2019-03-18T16:02:50.803Z,13.40
2019-03-18T16:05:17.103Z,14.20
2019-03-18T16:07:43.492Z,13.90
2019-03-18T16:10:15.005Z,13.40
2019-03-18T16:12:41.650Z,13.80
2019-03-18T16:15:10.571Z,14.10
2019-03-18T16:17:37.508Z,14.50
2019-03-18T16:20:07.407Z,14.10
2019-03-18T16:22:33.697Z,14.60
2019-03-18T16:25:00.037Z,14.30
2019-03-18T16:27:26.463Z,13.90
2019-03-18T16:29:52.963Z,13.20
2019-03-18T16:32:19.414Z,13.40
2019-03-18T16:34:45.954Z,13.00
2019-03-18T16:37:12.313Z,13.60
2019-03-18T16:39:38.642Z,13.30
2019-03-18T16:42:05.127Z,13.70
2019-03-18T16:44:31.897Z,14.10
2019-03-18T16:46:58.318Z,14.30
2019-03-18T16:49:24.732Z,14.20
2019-03-18T16:51:51.185Z,14.10
2019-03-18T16:54:17.616Z,13.50
2019-03-18T16:56:44.132Z,13.50
2019-03-18T16:59:10.425Z,14.50
2019-03-18T17:01:37.141Z,15.50
2019-03-18T17:04:03.437Z,14.70
2019-03-18T17:06:29.729Z,15.50
2019-03-18T17:08:56.195Z,15.40
2019-03-18T17:11:22.565Z,15.10
2019-03-18T17:13:48.928Z,14.70
2019-03-18T17:16:15.586Z,15.80
2019-03-18T17:18:42.199Z,14.70
2019-03-18T17:21:08.605Z,15.90
2019-03-18T17:23:35.250Z,16.20
2019-03-18T17:26:01.852Z,16.50
2019-03-18T17:28:28.143Z,16.00
2019-03-18T17:30:54.753Z,16.90
2019-03-18T17:33:21.111Z,16.60
2019-03-18T17:35:47.522Z,17.90
2019-03-18T17:38:13.957Z,18.40
2019-03-18T17:40:40.379Z,18.90
2019-03-18T17:43:07.041Z,19.50
2019-03-18T17:45:33.338Z,18.90
2019-03-18T17:47:59.745Z,20.10
2019-03-18T17:50:30.014Z,21.20
2019-03-18T17:53:02.876Z,22.30
2019-03-18T17:55:24.523Z,23.00
2019-03-18T17:57:50.933Z,23.80
2019-03-18T18:00:22.126Z,25.10
2019-03-18T18:02:48.416Z,26.40
2019-03-18T18:05:14.714Z,27.30
2019-03-18T18:07:41.366Z,27.20
2019-03-18T18:10:09.378Z,26.80
2019-03-18T18:12:35.800Z,26.60
2019-03-18T18:15:03.937Z,27.20
2019-03-18T18:17:30.243Z,27.70
2019-03-18T18:19:56.691Z,27.90
2019-03-18T18:22:23.239Z,28.70
2019-03-18T18:24:49.578Z,29.80
2019-03-18T18:27:15.861Z,29.40
2019-03-18T18:29:42.413Z,30.60
2019-03-18T18:32:09.257Z,29.90
2019-03-18T18:34:35.790Z,30.40
2019-03-18T18:37:02.743Z,30.80
2019-03-18T18:39:29.364Z,31.70
2019-03-18T18:41:55.977Z,31.80
2019-03-18T18:44:23.355Z,32.30
2019-03-18T18:46:50.002Z,32.30
2019-03-18T18:49:16.947Z,32.10
2019-03-18T18:51:44.186Z,31.90
2019-03-18T18:54:10.898Z,32.50
2019-03-18T18:56:37.628Z,32.30
2019-03-18T18:59:04.166Z,32.60
2019-03-18T19:01:30.793Z,32.90
2019-03-18T19:03:57.418Z,33.20
2019-03-18T19:06:27.194Z,32.90
2019-03-18T19:08:53.805Z,33.20
2019-03-18T19:11:20.421Z,33.00
2019-03-18T19:13:47.288Z,33.10
2019-03-18T19:16:14.295Z,33.20
2019-03-18T19:18:40.703Z,33.10
2019-03-18T19:21:07.577Z,33.10
2019-03-18T19:23:37.854Z,33.40
2019-03-18T19:26:02.873Z,33.10
2019-03-18T19:28:29.504Z,33.10
2019-03-18T19:30:56.015Z,33.40
2019-03-18T19:33:22.656Z,33.60
2019-03-18T19:35:49.316Z,33.20
2019-03-18T19:38:16.133Z,33.10
2019-03-18T19:40:42.760Z,32.90
2019-03-18T19:43:09.302Z,33.20
2019-03-18T19:45:35.916Z,33.30
2019-03-18T19:48:02.578Z,33.10
2019-03-18T19:50:30.831Z,33.30
2019-03-18T19:52:57.682Z,33.30
2019-03-18T19:55:24.083Z,33.90
2019-03-18T19:57:51.020Z,34.50
2019-03-18T20:00:21.903Z,34.20
2019-03-18T20:02:48.253Z,34.60
2019-03-18T20:05:16.516Z,36.10
2019-03-18T20:07:43.334Z,37.70
2019-03-18T20:10:11.941Z,38.60
2019-03-18T20:12:38.836Z,38.80
2019-03-18T20:15:08.385Z,39.40
2019-03-18T20:17:35.135Z,37.70
2019-03-18T20:20:02.075Z,38.90
2019-03-18T20:22:29.028Z,40.50
2019-03-18T20:24:55.636Z,41.60
2019-03-18T20:27:22.700Z,41.30
2019-03-18T20:29:49.302Z,41.50
2019-03-18T20:32:15.936Z,43.10
2019-03-18T20:34:42.637Z,43.60
2019-03-18T20:37:09.288Z,43.00
2019-03-18T20:39:35.648Z,45.40
2019-03-18T20:42:02.318Z,46.10
2019-03-18T20:44:28.918Z,47.90
2019-03-18T20:46:55.543Z,47.90
2019-03-18T20:49:22.397Z,46.10
2019-03-18T20:51:49.014Z,46.20
2019-03-18T20:54:15.626Z,46.80
2019-03-18T20:56:42.694Z,46.50
2019-03-18T20:59:09.320Z,48.80
2019-03-18T21:01:35.952Z,48.60
2019-03-18T21:04:02.621Z,47.40
2019-03-18T21:06:29.163Z,48.60
2019-03-18T21:08:55.694Z,48.10
2019-03-18T21:11:22.437Z,49.20
2019-03-18T21:13:57.079Z,48.10
2019-03-18T21:16:18.735Z,46.10
2019-03-18T21:18:45.579Z,46.20
2019-03-18T21:21:12.196Z,48.10
2019-03-18T21:23:39.133Z,47.80
2019-03-18T21:26:06.184Z,47.80
2019-03-18T21:28:40.871Z,48.20
2019-03-18T21:31:01.240Z,49.50
2019-03-18T21:33:27.763Z,49.50
2019-03-18T21:35:55.793Z,48.30
2019-03-18T21:38:22.774Z,48.60
2019-03-18T21:40:49.433Z,48.80
2019-03-18T21:43:15.955Z,48.80
2019-03-18T21:45:42.577Z,49.00
2019-03-18T21:48:09.625Z,49.10
2019-03-18T21:50:36.260Z,48.20
2019-03-18T21:53:03.189Z,47.90
2019-03-18T21:55:30.120Z,47.40
2019-03-18T21:57:56.717Z,47.40
2019-03-18T22:00:23.421Z,47.50
2019-03-18T22:02:50.075Z,48.30
2019-03-18T22:05:16.714Z,49.00
2019-03-18T22:07:43.367Z,49.50
2019-03-18T22:10:12.650Z,50.00
2019-03-18T22:12:39.158Z,50.20
2019-03-18T22:15:08.727Z,50.10
2019-03-18T22:17:35.390Z,49.80
2019-03-18T22:20:04.349Z,49.20
2019-03-18T22:22:30.960Z,49.00
2019-03-18T22:24:58.063Z,49.00
2019-03-18T22:27:24.686Z,49.20
2019-03-18T22:29:51.309Z,49.90
2019-03-18T22:32:18.112Z,49.00
2019-03-18T22:34:44.651Z,48.60
2019-03-18T22:37:11.169Z,49.30
2019-03-18T22:39:37.821Z,49.50
2019-03-18T22:42:04.442Z,49.40
2019-03-18T22:44:30.957Z,50.00
2019-03-18T22:46:57.598Z,50.10
2019-03-18T22:49:24.383Z,51.40
2019-03-18T22:51:50.999Z,51.00
2019-03-18T22:54:17.682Z,50.80
2019-03-18T22:56:44.543Z,52.40
2019-03-18T22:59:11.170Z,51.90
2019-03-18T23:01:38.108Z,51.00
2019-03-18T23:04:04.721Z,51.00
2019-03-18T23:06:31.358Z,51.30
2019-03-18T23:08:58.017Z,52.10
2019-03-18T23:11:24.659Z,51.60
2019-03-18T23:13:51.925Z,52.10
2019-03-18T23:16:18.582Z,51.50
2019-03-18T23:18:45.179Z,51.90
2019-03-18T23:21:11.805Z,51.50
2019-03-18T23:23:38.953Z,50.80
2019-03-18T23:26:05.544Z,51.90
2019-03-18T23:28:32.170Z,51.70
2019-03-18T23:30:58.788Z,52.00
2019-03-18T23:33:25.398Z,50.70
2019-03-18T23:35:51.909Z,52.30
2019-03-18T23:38:18.685Z,51.10
2019-03-18T23:40:45.191Z,51.70
2019-03-18T23:43:11.698Z,51.70
2019-03-18T23:45:38.250Z,51.80
2019-03-18T23:48:04.864Z,51.90
2019-03-18T23:50:31.481Z,51.60
2019-03-18T23:52:58.118Z,51.50
2019-03-18T23:55:24.754Z,51.30
2019-03-18T23:57:51.380Z,52.00
